createdAt,value
2017-10-20T00:00:31.332Z,16.85
2017-10-20T00:01:11.877Z,16.88
2017-10-20T00:01:52.409Z,16.91
2017-10-20T00:02:32.949Z,16.89
2017-10-20T00:03:13.485Z,16.83
2017-10-20T00:03:54.011Z,16.82
2017-10-20T00:04:34.553Z,16.88
2017-10-20T00:05:15.095Z,16.91
2017-10-20T00:05:55.635Z,16.86
2017-10-20T00:06:36.175Z,16.88
2017-10-20T00:07:16.709Z,16.83
2017-10-20T00:07:57.252Z,16.88
2017-10-20T00:08:37.793Z,16.79
2017-10-20T00:09:18.334Z,16.86
2017-10-20T00:09:58.869Z,16.83
2017-10-20T00:10:39.409Z,16.79
2017-10-20T00:11:19.963Z,16.78
2017-10-20T00:12:00.489Z,16.85
2017-10-20T00:12:41.026Z,16.81
2017-10-20T00:13:21.574Z,16.83
2017-10-20T00:14:02.106Z,16.76
2017-10-20T00:14:42.646Z,16.82
2017-10-20T00:15:23.229Z,16.82
2017-10-20T00:16:03.762Z,16.83
2017-10-20T00:16:44.331Z,16.81
2017-10-20T00:17:24.870Z,16.76
2017-10-20T00:18:05.412Z,16.79
2017-10-20T00:18:45.951Z,16.71
2017-10-20T00:19:26.491Z,16.66
2017-10-20T00:20:07.028Z,16.63
2017-10-20T00:20:47.558Z,16.67
2017-10-20T00:21:28.105Z,16.73
2017-10-20T00:22:08.645Z,16.63
2017-10-20T00:22:49.199Z,16.73
2017-10-20T00:23:29.731Z,16.67
2017-10-20T00:24:10.269Z,16.7
2017-10-20T00:24:50.816Z,16.68
2017-10-20T00:25:31.358Z,16.64
2017-10-20T00:26:11.888Z,16.73
2017-10-20T00:26:52.427Z,16.7
2017-10-20T00:27:32.964Z,16.75
2017-10-20T00:28:13.510Z,16.76
2017-10-20T00:28:54.049Z,16.78
2017-10-20T00:29:34.596Z,16.68
2017-10-20T00:30:15.137Z,16.66
2017-10-20T00:30:55.672Z,16.68
2017-10-20T00:31:36.204Z,16.67
2017-10-20T00:32:16.736Z,16.68
2017-10-20T00:32:57.269Z,16.67
2017-10-20T00:33:37.845Z,16.64
2017-10-20T00:34:18.394Z,16.7
2017-10-20T00:34:58.921Z,16.7
2017-10-20T00:35:39.454Z,16.68
2017-10-20T00:36:19.986Z,16.7
2017-10-20T00:37:00.521Z,16.68
2017-10-20T00:37:41.057Z,16.67
2017-10-20T00:38:21.595Z,16.61
2017-10-20T00:39:02.139Z,16.58
2017-10-20T00:39:42.676Z,16.61
2017-10-20T00:40:23.218Z,16.6
2017-10-20T00:41:03.757Z,16.66
2017-10-20T00:41:44.300Z,16.68
2017-10-20T00:42:24.838Z,16.58
2017-10-20T00:43:05.389Z,16.61
2017-10-20T00:43:45.928Z,16.57
2017-10-20T00:44:26.465Z,16.64
2017-10-20T00:45:07.007Z,16.56
2017-10-20T00:45:47.545Z,16.56
2017-10-20T00:46:28.144Z,16.57
2017-10-20T00:47:08.684Z,16.6
2017-10-20T00:47:49.212Z,16.6
2017-10-20T00:48:29.749Z,16.6
2017-10-20T00:49:10.287Z,16.56
2017-10-20T00:49:50.831Z,16.45
2017-10-20T00:50:31.366Z,16.6
2017-10-20T00:51:11.950Z,16.48
2017-10-20T00:51:52.488Z,16.49
2017-10-20T00:52:33.029Z,16.56
2017-10-20T00:53:13.569Z,16.5
2017-10-20T00:53:54.111Z,16.52
2017-10-20T00:54:34.651Z,16.56
2017-10-20T00:55:15.190Z,16.46
2017-10-20T00:55:55.727Z,16.43
2017-10-20T00:56:36.259Z,16.49
2017-10-20T00:57:16.803Z,16.49
2017-10-20T00:57:57.338Z,16.42
2017-10-20T00:58:37.877Z,16.42
2017-10-20T00:59:18.413Z,16.45
2017-10-20T00:59:58.953Z,16.45
2017-10-20T01:00:39.495Z,16.45
2017-10-20T01:01:20.034Z,16.46
2017-10-20T01:02:00.575Z,16.41
2017-10-20T01:02:41.114Z,16.42
2017-10-20T01:03:21.650Z,16.39
2017-10-20T01:04:02.191Z,16.39
2017-10-20T01:04:42.731Z,16.42
2017-10-20T01:05:23.269Z,16.42
2017-10-20T01:06:03.808Z,16.38
2017-10-20T01:06:47.285Z,16.43
2017-10-20T01:07:27.825Z,16.38
2017-10-20T01:08:08.386Z,16.42
2017-10-20T01:08:48.924Z,16.42
2017-10-20T01:09:29.464Z,16.34
2017-10-20T01:10:10.004Z,16.42
2017-10-20T01:10:50.544Z,16.33
2017-10-20T01:11:31.084Z,16.38
2017-10-20T01:12:11.626Z,16.27
2017-10-20T01:12:52.160Z,16.33
2017-10-20T01:13:32.703Z,16.28
2017-10-20T01:14:13.233Z,16.3
2017-10-20T01:14:53.777Z,16.33
2017-10-20T01:15:34.310Z,16.33
2017-10-20T01:16:14.849Z,16.34
2017-10-20T01:16:55.799Z,16.27
2017-10-20T01:18:12.468Z,16.27
2017-10-20T01:18:53.021Z,16.28
2017-10-20T01:19:33.564Z,16.25
2017-10-20T01:20:14.101Z,16.28
2017-10-20T01:20:54.639Z,16.25
2017-10-20T01:21:35.176Z,16.25
2017-10-20T01:22:15.710Z,16.17
2017-10-20T01:22:56.248Z,16.28
2017-10-20T01:23:36.784Z,16.2
2017-10-20T01:24:17.324Z,16.21
2017-10-20T01:24:57.861Z,16.2
2017-10-20T01:25:38.397Z,16.24
2017-10-20T01:26:18.939Z,16.25
2017-10-20T01:26:59.477Z,16.15
2017-10-20T01:27:40.014Z,16.21
2017-10-20T01:28:20.555Z,16.11
2017-10-20T01:29:01.095Z,16.23
2017-10-20T01:29:41.629Z,16.25
2017-10-20T01:30:22.165Z,16.14
2017-10-20T01:31:02.706Z,16.17
2017-10-20T01:31:43.242Z,16.08
2017-10-20T01:32:23.782Z,16.09
2017-10-20T01:33:04.317Z,16.07
2017-10-20T01:33:44.861Z,16.09
2017-10-20T01:34:25.403Z,16.09
2017-10-20T01:35:05.939Z,16.12
2017-10-20T01:35:46.477Z,16.02
2017-10-20T01:36:27.021Z,16.07
2017-10-20T01:37:07.556Z,16.08
2017-10-20T01:37:48.094Z,16.09
2017-10-20T01:38:28.639Z,16.05
2017-10-20T01:39:09.176Z,16.02
2017-10-20T01:39:49.729Z,15.94
2017-10-20T01:40:30.272Z,16.02
2017-10-20T01:41:10.814Z,16
2017-10-20T01:41:51.346Z,16.02
2017-10-20T01:42:31.878Z,16.01
2017-10-20T01:43:12.413Z,16.05
2017-10-20T01:43:52.951Z,16.05
2017-10-20T01:44:33.493Z,16.01
2017-10-20T01:45:14.029Z,16.02
2017-10-20T01:45:54.570Z,16.02
2017-10-20T01:46:35.109Z,16
2017-10-20T01:47:15.650Z,15.97
2017-10-20T01:47:56.184Z,16.04
2017-10-20T01:48:36.718Z,15.97
2017-10-20T01:49:17.259Z,16.02
2017-10-20T01:49:57.797Z,15.93
2017-10-20T01:50:38.335Z,16.01
2017-10-20T01:51:18.875Z,16.01
2017-10-20T01:51:59.418Z,16.02
2017-10-20T01:52:39.946Z,16.01
2017-10-20T01:53:20.488Z,16.02
2017-10-20T01:54:01.021Z,16.01
2017-10-20T01:54:41.559Z,16.01
2017-10-20T01:55:22.101Z,16.04
2017-10-20T01:56:02.641Z,16.11
2017-10-20T01:56:43.181Z,16
2017-10-20T01:57:23.718Z,16.04
2017-10-20T01:58:04.257Z,16.01
2017-10-20T01:58:44.792Z,16.01
2017-10-20T01:59:25.329Z,16.04
2017-10-20T02:00:05.866Z,16.04
2017-10-20T02:00:46.409Z,16.08
2017-10-20T02:01:26.946Z,16.07
2017-10-20T02:02:07.485Z,16.01
2017-10-20T02:02:48.027Z,16.05
2017-10-20T02:03:28.564Z,16.11
2017-10-20T02:04:09.104Z,16.02
2017-10-20T02:04:49.650Z,16.05
2017-10-20T02:05:30.188Z,16.04
2017-10-20T02:06:10.715Z,16.02
2017-10-20T02:06:51.255Z,16.05
2017-10-20T02:07:31.820Z,16
2017-10-20T02:08:12.330Z,16.02
2017-10-20T02:08:52.868Z,16.01
2017-10-20T02:09:33.468Z,16.04
2017-10-20T02:10:14.023Z,16
2017-10-20T02:10:54.562Z,15.96
2017-10-20T02:11:35.103Z,16.02
2017-10-20T02:12:15.649Z,16.02
2017-10-20T02:12:56.183Z,16
2017-10-20T02:13:36.708Z,16
2017-10-20T02:14:17.248Z,16.12
2017-10-20T02:14:57.785Z,16.02
2017-10-20T02:15:38.326Z,16.04
2017-10-20T02:16:18.864Z,16.07
2017-10-20T02:16:59.401Z,16.04
2017-10-20T02:17:39.943Z,16.02
2017-10-20T02:18:20.481Z,16.07
2017-10-20T02:19:01.018Z,16.02
2017-10-20T02:19:41.555Z,16.02
2017-10-20T02:20:22.091Z,16.08
2017-10-20T02:21:02.630Z,16.09
2017-10-20T02:21:43.167Z,16.04
2017-10-20T02:22:23.699Z,16.02
2017-10-20T02:23:04.235Z,16.09
2017-10-20T02:23:44.773Z,16.05
2017-10-20T02:24:25.314Z,16.02
2017-10-20T02:25:05.852Z,16.05
2017-10-20T02:25:46.393Z,16.01
2017-10-20T02:26:26.943Z,16.02
2017-10-20T02:27:07.486Z,15.94
2017-10-20T02:27:48.032Z,16.07
2017-10-20T02:28:28.568Z,16.07
2017-10-20T02:29:09.111Z,16.04
2017-10-20T02:29:49.643Z,16.11
2017-10-20T02:30:30.180Z,16
2017-10-20T02:31:10.720Z,16.08
2017-10-20T02:31:51.260Z,16.04
2017-10-20T02:32:31.797Z,16.02
2017-10-20T02:33:12.339Z,15.96
2017-10-20T02:33:52.877Z,16
2017-10-20T02:34:33.419Z,16.02
2017-10-20T02:35:13.958Z,16.04
2017-10-20T02:35:54.484Z,16.01
2017-10-20T02:36:35.025Z,16.01
2017-10-20T02:37:15.565Z,16.05
2017-10-20T02:37:56.104Z,16.01
2017-10-20T02:38:36.646Z,16
2017-10-20T02:39:17.192Z,15.96
2017-10-20T02:39:57.731Z,16
2017-10-20T02:40:38.271Z,15.96
2017-10-20T02:41:18.815Z,16.04
2017-10-20T02:41:59.357Z,16.02
2017-10-20T02:42:39.891Z,16.01
2017-10-20T02:43:20.438Z,15.96
2017-10-20T02:44:01.034Z,16.01
2017-10-20T02:44:41.565Z,16
2017-10-20T02:45:22.107Z,15.96
2017-10-20T02:46:02.640Z,15.94
2017-10-20T02:46:43.180Z,15.97
2017-10-20T02:47:23.716Z,15.92
2017-10-20T02:48:04.254Z,15.97
2017-10-20T02:48:44.792Z,15.87
2017-10-20T02:49:25.332Z,15.92
2017-10-20T02:50:05.875Z,15.96
2017-10-20T02:50:46.409Z,15.87
2017-10-20T02:51:26.945Z,15.94
2017-10-20T02:52:07.479Z,15.93
2017-10-20T02:52:48.016Z,15.84
2017-10-20T02:53:28.558Z,15.93
2017-10-20T02:54:09.095Z,16.01
2017-10-20T02:54:49.637Z,15.92
2017-10-20T02:55:30.169Z,15.93
2017-10-20T02:56:10.710Z,15.82
2017-10-20T02:56:51.243Z,15.96
2017-10-20T02:57:31.782Z,15.96
2017-10-20T02:58:12.315Z,15.9
2017-10-20T02:58:52.850Z,15.87
2017-10-20T02:59:33.389Z,15.92
2017-10-20T03:00:13.926Z,15.89
2017-10-20T03:00:54.458Z,15.96
2017-10-20T03:01:35.003Z,15.86
2017-10-20T03:02:15.522Z,15.86
2017-10-20T03:02:56.055Z,15.97
2017-10-20T03:03:36.580Z,15.96
2017-10-20T03:04:17.106Z,15.87
2017-10-20T03:04:57.638Z,15.94
2017-10-20T03:05:38.174Z,15.83
2017-10-20T03:06:18.718Z,15.93
2017-10-20T03:06:59.261Z,15.97
2017-10-20T03:07:39.851Z,15.92
2017-10-20T03:08:20.385Z,15.93
2017-10-20T03:09:00.924Z,15.93
2017-10-20T03:09:41.528Z,15.97
2017-10-20T03:10:22.062Z,15.93
2017-10-20T03:11:02.631Z,15.86
2017-10-20T03:11:43.169Z,15.93
2017-10-20T03:12:23.706Z,15.92
2017-10-20T03:13:04.240Z,15.92
2017-10-20T03:13:44.779Z,15.97
2017-10-20T03:14:25.313Z,15.9
2017-10-20T03:15:05.879Z,16.01
2017-10-20T03:15:46.416Z,15.86
2017-10-20T03:16:26.944Z,15.89
2017-10-20T03:17:07.495Z,16
2017-10-20T03:17:48.033Z,15.92
2017-10-20T03:18:28.567Z,16.04
2017-10-20T03:19:09.112Z,15.94
2017-10-20T03:19:49.648Z,15.96
2017-10-20T03:20:30.183Z,15.97
2017-10-20T03:21:10.717Z,15.97
2017-10-20T03:21:51.250Z,16.04
2017-10-20T03:22:31.781Z,16.05
2017-10-20T03:23:12.308Z,16.04
2017-10-20T03:23:52.922Z,16.02
2017-10-20T03:24:33.452Z,15.92
2017-10-20T03:25:13.991Z,16.05
2017-10-20T03:25:54.526Z,16.01
2017-10-20T03:26:35.063Z,16.04
2017-10-20T03:27:15.600Z,16.04
2017-10-20T03:27:56.143Z,16
2017-10-20T03:28:36.683Z,15.94
2017-10-20T03:29:17.249Z,16.02
2017-10-20T03:29:57.786Z,16.02
2017-10-20T03:30:38.317Z,16.02
2017-10-20T03:31:18.853Z,15.97
2017-10-20T03:31:59.393Z,16.02
2017-10-20T03:32:39.920Z,16.04
2017-10-20T03:33:20.473Z,16.02
2017-10-20T03:34:01.003Z,16.04
2017-10-20T03:34:41.543Z,16.02
2017-10-20T03:35:22.080Z,15.96
2017-10-20T03:36:02.612Z,16.02
2017-10-20T03:36:43.148Z,15.96
2017-10-20T03:37:23.684Z,16.01
2017-10-20T03:38:04.280Z,15.97
2017-10-20T03:38:44.833Z,16.04
2017-10-20T03:39:25.457Z,16
2017-10-20T03:40:05.979Z,15.97
2017-10-20T03:40:46.496Z,15.9
2017-10-20T03:41:27.049Z,16.01
2017-10-20T03:42:07.585Z,16
2017-10-20T03:42:48.121Z,16.02
2017-10-20T03:43:28.681Z,16.05
2017-10-20T03:44:09.220Z,16.01
2017-10-20T03:44:49.756Z,16.04
2017-10-20T03:45:30.292Z,16.02
2017-10-20T03:46:10.832Z,16.05
2017-10-20T03:46:51.369Z,16.04
2017-10-20T03:47:31.914Z,15.93
2017-10-20T03:48:12.459Z,16.01
2017-10-20T03:48:52.995Z,16.04
2017-10-20T03:49:33.552Z,16.01
2017-10-20T03:50:14.100Z,16.02
2017-10-20T03:50:54.639Z,16.05
2017-10-20T03:51:35.168Z,16.02
2017-10-20T03:52:15.712Z,16.07
2017-10-20T03:52:56.260Z,16
2017-10-20T03:53:36.792Z,16.12
2017-10-20T03:54:17.333Z,16.12
2017-10-20T03:54:57.873Z,16.11
2017-10-20T03:55:38.406Z,16.07
2017-10-20T03:56:18.949Z,16.01
2017-10-20T03:56:59.492Z,16.17
2017-10-20T03:57:40.027Z,16.17
2017-10-20T03:58:20.562Z,16.12
2017-10-20T03:59:01.102Z,16.15
2017-10-20T03:59:41.637Z,16.2
2017-10-20T04:00:22.178Z,16.24
2017-10-20T04:01:02.714Z,16.25
2017-10-20T04:01:43.255Z,16.21
2017-10-20T04:02:23.796Z,16.25
2017-10-20T04:03:04.340Z,16.2
2017-10-20T04:03:44.875Z,16.27
2017-10-20T04:04:25.419Z,16.3
2017-10-20T04:05:06.077Z,16.2
2017-10-20T04:05:46.616Z,16.28
2017-10-20T04:06:27.157Z,16.25
2017-10-20T04:07:07.697Z,16.25
2017-10-20T04:07:48.235Z,16.23
2017-10-20T04:08:28.773Z,16.25
2017-10-20T04:09:09.315Z,16.25
2017-10-20T04:09:49.850Z,16.3
2017-10-20T04:10:30.382Z,16.24
2017-10-20T04:11:11.580Z,16.3
2017-10-20T04:11:52.078Z,16.25
2017-10-20T04:12:32.638Z,16.23
2017-10-20T04:13:13.179Z,16.24
2017-10-20T04:13:53.726Z,16.11
2017-10-20T04:14:34.260Z,16.09
2017-10-20T04:15:14.850Z,16.04
2017-10-20T04:15:55.474Z,16.01
2017-10-20T04:16:36.129Z,15.97
2017-10-20T04:17:16.671Z,16.02
2017-10-20T04:17:57.220Z,15.93
2017-10-20T04:18:37.752Z,15.89
2017-10-20T04:19:18.296Z,15.76
2017-10-20T04:19:58.830Z,15.56
2017-10-20T04:20:39.367Z,15.38
2017-10-20T04:21:20.254Z,15.14
2017-10-20T04:22:01.568Z,15.07
2017-10-20T04:22:42.261Z,14.98
2017-10-20T04:23:22.801Z,14.81
2017-10-20T04:24:03.413Z,14.77
2017-10-20T04:24:44.011Z,14.73
2017-10-20T04:25:24.600Z,14.68
2017-10-20T04:26:05.170Z,14.55
2017-10-20T04:26:45.713Z,14.5
2017-10-20T04:27:26.247Z,14.4
2017-10-20T04:28:06.785Z,14.47
2017-10-20T04:28:47.314Z,14.37
2017-10-20T04:29:27.855Z,14.33
2017-10-20T04:30:08.396Z,14.21
2017-10-20T04:30:48.934Z,14.24
2017-10-20T04:31:29.474Z,14.24
2017-10-20T04:32:10.016Z,14.24
2017-10-20T04:32:50.552Z,14.1
2017-10-20T04:33:31.093Z,14.14
2017-10-20T04:34:11.632Z,14.02
2017-10-20T04:34:52.163Z,14.03
2017-10-20T04:35:32.709Z,13.99
2017-10-20T04:36:13.249Z,13.95
2017-10-20T04:36:53.782Z,13.88
2017-10-20T04:37:34.321Z,13.89
2017-10-20T04:38:14.883Z,13.84
2017-10-20T04:38:55.420Z,13.81
2017-10-20T04:39:35.961Z,13.78
2017-10-20T04:40:16.499Z,13.67
2017-10-20T04:40:57.046Z,13.71
2017-10-20T04:41:37.572Z,13.75
2017-10-20T04:42:18.167Z,13.73
2017-10-20T04:42:58.702Z,13.75
2017-10-20T04:43:39.246Z,13.67
2017-10-20T04:44:19.780Z,13.71
2017-10-20T04:45:00.315Z,13.64
2017-10-20T04:45:40.857Z,13.62
2017-10-20T04:46:21.386Z,13.64
2017-10-20T04:47:01.930Z,13.6
2017-10-20T04:47:42.503Z,13.59
2017-10-20T04:48:23.041Z,13.6
2017-10-20T04:49:03.595Z,13.57
2017-10-20T04:49:44.139Z,13.54
2017-10-20T04:50:24.687Z,13.52
2017-10-20T04:51:05.238Z,13.55
2017-10-20T04:51:45.782Z,13.64
2017-10-20T04:52:26.325Z,13.66
2017-10-20T04:53:06.867Z,13.63
2017-10-20T04:53:47.415Z,13.66
2017-10-20T04:54:27.941Z,13.69
2017-10-20T04:55:08.496Z,13.73
2017-10-20T04:55:49.093Z,13.75
2017-10-20T04:56:29.646Z,13.66
2017-10-20T04:57:10.302Z,13.69
2017-10-20T04:57:50.848Z,13.67
2017-10-20T04:58:31.439Z,13.73
2017-10-20T04:59:11.985Z,13.66
2017-10-20T04:59:52.525Z,13.71
2017-10-20T05:00:33.075Z,13.69
2017-10-20T05:01:13.601Z,13.69
2017-10-20T05:01:54.177Z,13.67
2017-10-20T05:02:34.724Z,13.67
2017-10-20T05:03:15.247Z,13.67
2017-10-20T05:03:55.785Z,13.67
2017-10-20T05:04:36.324Z,13.66
2017-10-20T05:05:16.866Z,13.69
2017-10-20T05:05:57.404Z,13.64
2017-10-20T05:07:46.366Z,13.69
2017-10-20T05:08:26.882Z,13.69
2017-10-20T05:09:07.424Z,13.66
2017-10-20T05:09:47.936Z,13.71
2017-10-20T05:10:28.471Z,13.75
2017-10-20T05:11:09.001Z,13.75
2017-10-20T05:11:49.628Z,13.73
2017-10-20T05:12:30.168Z,13.71
2017-10-20T05:13:11.015Z,13.69
2017-10-20T05:13:51.550Z,13.77
2017-10-20T05:14:32.103Z,13.73
2017-10-20T05:15:12.637Z,13.75
2017-10-20T05:15:53.163Z,13.7
2017-10-20T05:16:33.754Z,13.79
2017-10-20T05:17:14.285Z,13.81
2017-10-20T05:17:54.816Z,13.79
2017-10-20T05:18:35.353Z,13.84
2017-10-20T05:19:15.898Z,13.82
2017-10-20T05:19:56.425Z,13.87
2017-10-20T05:20:37.640Z,13.89
2017-10-20T05:21:18.183Z,13.91
2017-10-20T05:21:58.723Z,13.84
2017-10-20T05:22:39.247Z,13.92
2017-10-20T05:23:19.783Z,13.89
2017-10-20T05:24:00.301Z,13.85
2017-10-20T05:24:40.837Z,13.85
2017-10-20T05:25:21.373Z,13.88
2017-10-20T05:26:01.907Z,13.92
2017-10-20T05:26:42.442Z,13.78
2017-10-20T05:27:22.971Z,13.82
2017-10-20T05:28:03.504Z,13.79
2017-10-20T05:28:44.041Z,13.84
2017-10-20T05:29:24.578Z,13.89
2017-10-20T05:30:05.142Z,13.89
2017-10-20T05:30:45.667Z,13.88
2017-10-20T05:31:26.205Z,13.77
2017-10-20T05:32:06.736Z,13.88
2017-10-20T05:32:47.270Z,13.79
2017-10-20T05:33:27.819Z,13.91
2017-10-20T05:34:08.350Z,13.91
2017-10-20T05:34:48.881Z,13.91
2017-10-20T05:35:29.414Z,13.85
2017-10-20T05:36:09.948Z,13.85
2017-10-20T05:36:50.485Z,13.87
2017-10-20T05:37:31.021Z,13.81
2017-10-20T05:38:11.594Z,13.79
2017-10-20T05:38:52.123Z,13.82
2017-10-20T05:39:32.650Z,13.82
2017-10-20T05:40:13.184Z,13.88
2017-10-20T05:40:53.717Z,13.95
2017-10-20T05:41:34.249Z,13.85
2017-10-20T05:42:14.785Z,13.88
2017-10-20T05:42:55.316Z,13.82
2017-10-20T05:43:35.846Z,13.91
2017-10-20T05:44:16.377Z,13.91
2017-10-20T05:44:56.923Z,13.92
2017-10-20T05:45:37.467Z,13.92
2017-10-20T05:46:18.000Z,14.02
2017-10-20T05:46:58.539Z,13.99
2017-10-20T05:47:39.074Z,14.02
2017-10-20T05:48:19.606Z,14.04
2017-10-20T05:49:00.141Z,14.06
2017-10-20T05:49:40.678Z,14.04
2017-10-20T05:50:21.253Z,13.97
2017-10-20T05:51:01.764Z,14.02
2017-10-20T05:51:42.300Z,13.92
2017-10-20T05:52:22.830Z,13.91
2017-10-20T05:53:03.368Z,13.95
2017-10-20T05:53:43.916Z,13.89
2017-10-20T05:54:24.437Z,13.99
2017-10-20T05:55:04.974Z,14.03
2017-10-20T05:55:45.508Z,13.97
2017-10-20T05:56:26.040Z,13.97
2017-10-20T05:57:06.570Z,14.02
2017-10-20T05:57:47.100Z,13.97
2017-10-20T05:58:27.640Z,13.99
2017-10-20T05:59:08.168Z,13.99
2017-10-20T05:59:48.706Z,13.99
2017-10-20T06:00:29.250Z,13.96
2017-10-20T06:01:09.786Z,14.04
2017-10-20T06:01:50.318Z,13.99
2017-10-20T06:02:30.858Z,14.04
2017-10-20T06:03:11.385Z,14
2017-10-20T06:03:51.914Z,14.04
2017-10-20T06:04:32.459Z,14.03
2017-10-20T06:05:12.994Z,14.03
2017-10-20T06:05:53.525Z,14.04
2017-10-20T06:06:34.061Z,14.03
2017-10-20T06:07:14.599Z,13.99
2017-10-20T06:07:55.134Z,14.03
2017-10-20T06:08:35.667Z,14.02
2017-10-20T06:09:16.201Z,14.02
2017-10-20T06:09:56.731Z,14.02
2017-10-20T06:10:37.265Z,14.04
2017-10-20T06:11:17.795Z,14.03
2017-10-20T06:11:58.324Z,14.04
2017-10-20T06:12:38.864Z,14.03
2017-10-20T06:13:19.394Z,14.09
2017-10-20T06:13:59.926Z,14.1
2017-10-20T06:14:40.460Z,14.04
2017-10-20T06:15:20.998Z,14.04
2017-10-20T06:16:01.539Z,14.07
2017-10-20T06:16:42.078Z,13.99
2017-10-20T06:17:22.605Z,14.02
2017-10-20T06:18:03.132Z,14.03
2017-10-20T06:18:43.674Z,14.15
2017-10-20T06:19:24.208Z,14.07
2017-10-20T06:20:04.787Z,14.18
2017-10-20T06:20:45.376Z,14.18
2017-10-20T06:21:25.913Z,14.17
2017-10-20T06:22:06.467Z,14.12
2017-10-20T06:22:46.986Z,14.21
2017-10-20T06:23:27.523Z,14.18
2017-10-20T06:24:08.086Z,14.18
2017-10-20T06:24:48.630Z,14.2
2017-10-20T06:25:29.154Z,14.21
2017-10-20T06:26:09.705Z,14.21
2017-10-20T06:26:50.241Z,14.2
2017-10-20T06:27:30.779Z,14.24
2017-10-20T06:28:11.319Z,14.22
2017-10-20T06:28:51.847Z,14.2
2017-10-20T06:29:32.378Z,14.21
2017-10-20T06:30:12.916Z,14.21
2017-10-20T06:30:53.479Z,14.25
2017-10-20T06:31:33.992Z,14.24
2017-10-20T06:32:14.547Z,14.25
2017-10-20T06:32:55.058Z,14.2
2017-10-20T06:33:35.593Z,14.24
2017-10-20T06:34:16.134Z,14.24
2017-10-20T06:34:56.666Z,14.21
2017-10-20T06:35:37.201Z,14.24
2017-10-20T06:36:17.742Z,14.36
2017-10-20T06:36:58.280Z,14.37
2017-10-20T06:37:38.806Z,14.4
2017-10-20T06:38:19.349Z,14.42
2017-10-20T06:38:59.904Z,14.39
2017-10-20T06:39:40.488Z,14.43
2017-10-20T06:40:20.968Z,14.4
2017-10-20T06:41:01.504Z,14.35
2017-10-20T06:41:42.046Z,14.33
2017-10-20T06:42:22.581Z,14.39
2017-10-20T06:43:03.119Z,14.43
2017-10-20T06:43:43.652Z,14.45
2017-10-20T06:44:24.190Z,14.35
2017-10-20T06:45:04.727Z,14.36
2017-10-20T06:45:45.261Z,14.5
2017-10-20T06:46:25.803Z,14.5
2017-10-20T06:47:06.332Z,14.43
2017-10-20T06:47:46.866Z,14.42
2017-10-20T06:48:27.415Z,14.33
2017-10-20T06:49:07.945Z,14.39
2017-10-20T06:49:48.477Z,14.51
2017-10-20T06:50:29.052Z,14.45
2017-10-20T06:51:09.555Z,14.42
2017-10-20T06:51:50.101Z,14.4
2017-10-20T06:52:30.630Z,14.45
2017-10-20T06:53:11.191Z,14.4
2017-10-20T06:53:51.696Z,14.39
2017-10-20T06:54:32.236Z,14.36
2017-10-20T06:55:12.768Z,14.43
2017-10-20T06:55:53.297Z,14.4
2017-10-20T06:56:33.831Z,14.37
2017-10-20T06:57:14.364Z,14.39
2017-10-20T06:57:54.900Z,14.4
2017-10-20T06:58:35.444Z,14.37
2017-10-20T06:59:15.979Z,14.39
2017-10-20T06:59:56.516Z,14.43
2017-10-20T07:00:37.050Z,14.35
2017-10-20T07:01:17.586Z,14.35
2017-10-20T07:01:58.117Z,14.35
2017-10-20T07:02:38.656Z,14.36
2017-10-20T07:03:19.183Z,14.42
2017-10-20T07:03:59.720Z,14.35
2017-10-20T07:04:40.263Z,14.42
2017-10-20T07:05:20.801Z,14.4
2017-10-20T07:06:01.328Z,14.4
2017-10-20T07:06:41.867Z,14.37
2017-10-20T07:07:22.407Z,14.36
2017-10-20T07:08:02.943Z,14.36
2017-10-20T07:08:43.484Z,14.39
2017-10-20T07:09:24.014Z,14.33
2017-10-20T07:10:04.548Z,14.4
2017-10-20T07:10:45.078Z,14.5
2017-10-20T07:11:25.622Z,14.43
2017-10-20T07:12:06.147Z,14.43
2017-10-20T07:12:46.683Z,14.51
2017-10-20T07:13:27.218Z,14.52
2017-10-20T07:14:07.807Z,14.58
2017-10-20T07:14:48.345Z,14.58
2017-10-20T07:15:28.883Z,14.62
2017-10-20T07:16:09.405Z,14.69
2017-10-20T07:16:49.938Z,14.69
2017-10-20T07:17:30.478Z,14.75
2017-10-20T07:18:11.009Z,14.77
2017-10-20T07:18:51.546Z,14.83
2017-10-20T07:19:32.085Z,14.8
2017-10-20T07:20:12.625Z,14.91
2017-10-20T07:20:53.243Z,14.95
2017-10-20T07:21:33.856Z,15.02
2017-10-20T07:22:14.393Z,15.09
2017-10-20T07:22:54.930Z,15.09
2017-10-20T07:23:35.470Z,15.16
2017-10-20T07:24:16.008Z,15.17
2017-10-20T07:24:56.541Z,15.14
2017-10-20T07:25:37.077Z,15.19
2017-10-20T07:26:17.614Z,15.27
2017-10-20T07:26:58.141Z,15.29
2017-10-20T07:27:38.684Z,15.34
2017-10-20T07:28:19.219Z,15.34
2017-10-20T07:28:59.758Z,15.46
2017-10-20T07:29:40.290Z,15.49
2017-10-20T07:30:20.823Z,15.5
2017-10-20T07:31:01.360Z,15.57
2017-10-20T07:31:41.892Z,15.59
2017-10-20T07:32:22.428Z,15.57
2017-10-20T07:33:02.957Z,15.68
2017-10-20T07:33:43.495Z,15.75
2017-10-20T07:34:24.034Z,15.74
2017-10-20T07:35:04.576Z,15.8
2017-10-20T07:35:45.117Z,15.8
2017-10-20T07:36:25.654Z,15.8
2017-10-20T07:37:06.196Z,15.92
2017-10-20T07:37:46.736Z,15.86
2017-10-20T07:38:27.271Z,15.86
2017-10-20T07:39:07.804Z,15.92
2017-10-20T07:39:48.339Z,16.01
2017-10-20T07:40:28.880Z,16
2017-10-20T07:41:09.419Z,16
2017-10-20T07:41:49.958Z,16.01
2017-10-20T07:42:30.491Z,16
2017-10-20T07:43:11.018Z,16.05
2017-10-20T07:43:51.561Z,16.15
2017-10-20T07:44:32.098Z,16.08
2017-10-20T07:45:12.634Z,16.12
2017-10-20T07:45:53.174Z,16.12
2017-10-20T07:46:33.713Z,16.23
2017-10-20T07:47:14.250Z,16.14
2017-10-20T07:47:54.797Z,16.23
2017-10-20T07:48:35.317Z,16.24
2017-10-20T07:49:15.867Z,16.2
2017-10-20T07:49:56.399Z,16.15
2017-10-20T07:50:36.952Z,16.15
2017-10-20T07:51:17.546Z,16.17
2017-10-20T07:51:58.081Z,16.21
2017-10-20T07:52:38.615Z,16.17
2017-10-20T07:53:19.152Z,16.11
2017-10-20T07:53:59.691Z,16.24
2017-10-20T07:54:40.224Z,16.23
2017-10-20T07:55:20.762Z,16.23
2017-10-20T07:56:01.335Z,16.12
2017-10-20T07:56:41.871Z,16.11
2017-10-20T07:57:22.404Z,16.11
2017-10-20T07:58:02.939Z,16.24
2017-10-20T07:58:43.473Z,16.09
2017-10-20T07:59:24.008Z,16.25
2017-10-20T08:00:04.550Z,16.2
2017-10-20T08:00:45.092Z,16.11
2017-10-20T08:01:25.624Z,16.24
2017-10-20T08:02:06.182Z,16.11
2017-10-20T08:02:46.710Z,16.12
2017-10-20T08:03:27.238Z,16.14
2017-10-20T08:04:07.775Z,16.15
2017-10-20T08:04:48.315Z,16.09
2017-10-20T08:05:28.849Z,16.05
2017-10-20T08:06:09.384Z,16.14
2017-10-20T08:06:49.925Z,16.11
2017-10-20T08:07:30.459Z,16.09
2017-10-20T08:08:10.992Z,16.14
2017-10-20T08:08:51.531Z,16.08
2017-10-20T08:09:32.066Z,16.09
2017-10-20T08:10:12.609Z,16.12
2017-10-20T08:10:53.139Z,16.14
2017-10-20T08:11:33.685Z,16.2
2017-10-20T08:12:14.216Z,16.14
2017-10-20T08:12:54.741Z,16.15
2017-10-20T08:13:35.282Z,16.12
2017-10-20T08:14:15.802Z,16.17
2017-10-20T08:14:56.338Z,16.12
2017-10-20T08:15:36.879Z,16.24
2017-10-20T08:16:17.404Z,16.3
2017-10-20T08:16:57.940Z,16.2
2017-10-20T08:17:38.477Z,16.17
2017-10-20T08:18:19.013Z,16.21
2017-10-20T08:18:59.554Z,16.24
2017-10-20T08:19:40.078Z,16.27
2017-10-20T08:20:20.623Z,16.27
2017-10-20T08:21:01.207Z,16.35
2017-10-20T08:21:41.828Z,16.34
2017-10-20T08:22:22.390Z,16.28
2017-10-20T08:23:02.923Z,16.38
2017-10-20T08:23:43.456Z,16.41
2017-10-20T08:24:23.996Z,16.41
2017-10-20T08:25:04.535Z,16.42
2017-10-20T08:25:45.069Z,16.43
2017-10-20T08:26:25.602Z,16.57
2017-10-20T08:27:06.142Z,16.52
2017-10-20T08:27:46.679Z,16.56
2017-10-20T08:28:27.217Z,16.57
2017-10-20T08:29:07.746Z,16.61
2017-10-20T08:29:48.295Z,16.7
2017-10-20T08:30:28.818Z,16.57
2017-10-20T08:31:09.353Z,16.64
2017-10-20T08:31:49.893Z,16.64
2017-10-20T08:32:30.432Z,16.7
2017-10-20T08:33:10.973Z,16.7
2017-10-20T08:33:51.507Z,16.67
2017-10-20T08:34:32.043Z,16.71
2017-10-20T08:35:12.583Z,16.67
2017-10-20T08:35:53.117Z,16.75
2017-10-20T08:36:33.654Z,16.61
2017-10-20T08:37:14.193Z,16.67
2017-10-20T08:37:54.741Z,16.64
2017-10-20T08:38:35.286Z,16.73
2017-10-20T08:39:15.821Z,16.71
2017-10-20T08:39:56.347Z,16.63
2017-10-20T08:40:36.887Z,16.66
2017-10-20T08:41:17.425Z,16.66
2017-10-20T08:41:58.000Z,16.73
2017-10-20T08:42:38.508Z,16.81
2017-10-20T08:43:19.047Z,16.68
2017-10-20T08:43:59.584Z,16.67
2017-10-20T08:44:40.122Z,16.76
2017-10-20T08:45:20.668Z,16.76
2017-10-20T08:46:01.200Z,16.68
2017-10-20T08:46:41.735Z,16.75